Time;durP1;ratioP1;P1;durP2;ratioP2;P2;SDS_P1;SDS_P2;PMS_P1;PMS_P2;Temp;Humidity;BMP_temperature;BMP_pressure;BME280_temperature;BME280_humidity;BME280_pressure;Samples;Min_cycle;Max_cycle;Signal;HPM_P1;HPM_P2
2021/04/02 00:02:08;;;;;;;17.85;8.63;;;6.40;99.90;;;;;;5010634;28;20033;-60
2021/04/02 00:04:34;;;;;;;21.00;9.00;;;6.40;99.90;;;;;;5008995;28;20030;-57
2021/04/02 00:07:01;;;;;;;20.05;8.65;;;6.30;99.90;;;;;;5009441;28;20557;-58
2021/04/02 00:09:27;;;;;;;21.50;8.75;;;6.30;99.90;;;;;;5009456;28;20026;-58
2021/04/02 00:11:53;;;;;;;20.08;8.65;;;6.20;99.90;;;;;;5031479;23;20049;-62
2021/04/02 00:14:19;;;;;;;23.00;8.52;;;6.30;99.90;;;;;;5009541;28;20025;-64
2021/04/02 00:16:44;;;;;;;22.90;8.73;;;6.20;99.90;;;;;;5006661;28;20056;-60
2021/04/02 00:19:10;;;;;;;21.67;8.43;;;6.20;99.90;;;;;;5013777;28;20399;-64
2021/04/02 00:21:35;;;;;;;20.65;9.13;;;6.20;99.90;;;;;;5013750;28;20125;-60
2021/04/02 00:24:01;;;;;;;21.83;9.50;;;6.10;99.90;;;;;;5013296;28;20673;-60
2021/04/02 00:26:27;;;;;;;23.10;8.73;;;6.10;99.90;;;;;;5013592;28;20026;-60
2021/04/02 00:28:54;;;;;;;20.63;8.48;;;6.00;99.90;;;;;;5012179;28;20044;-61
2021/04/02 00:31:20;;;;;;;20.27;8.88;;;5.90;99.90;;;;;;5013384;28;20108;-61
2021/04/02 00:33:46;;;;;;;23.95;9.10;;;5.90;99.90;;;;;;5011844;28;20144;-61
2021/04/02 00:36:12;;;;;;;22.45;9.25;;;5.90;99.90;;;;;;5012065;28;20037;-60
2021/04/02 00:38:38;;;;;;;21.85;9.32;;;5.90;99.90;;;;;;5012078;28;20029;-59
2021/04/02 00:41:12;;;;;;;22.40;9.48;;;5.90;99.90;;;;;;5011853;28;20034;-58
2021/04/02 00:43:46;;;;;;;22.65;10.38;;;6.00;99.90;;;;;;5011908;28;20034;-57
2021/04/02 00:46:12;;;;;;;24.67;9.45;;;6.10;99.90;;;;;;5013405;28;20036;-62
2021/04/02 00:48:42;;;;;;;18.90;8.95;;;6.20;99.90;;;;;;5013099;28;20077;-63
2021/04/02 00:51:12;;;;;;;21.45;10.15;;;6.10;99.90;;;;;;5012940;28;20026;-61
2021/04/02 00:53:41;;;;;;;19.67;8.75;;;6.00;99.90;;;;;;5012680;28;20084;-61
2021/04/02 00:56:09;;;;;;;21.60;9.70;;;6.00;99.90;;;;;;5011763;28;20022;-60
2021/04/02 00:58:36;;;;;;;19.08;8.35;;;5.90;99.90;;;;;;5012946;28;20026;-61
2021/04/02 01:01:04;;;;;;;19.13;8.70;;;5.90;99.90;;;;;;5012920;28;20026;-61
2021/04/02 01:03:30;;;;;;;24.13;8.35;;;5.70;99.90;;;;;;5012698;28;20026;-61
2021/04/02 01:05:59;;;;;;;21.60;9.23;;;5.70;99.90;;;;;;5012837;28;20133;-61
2021/04/02 01:08:31;;;;;;;18.63;9.32;;;5.70;99.90;;;;;;5012964;28;20109;-61
2021/04/02 01:11:01;;;;;;;19.60;9.57;;;5.60;99.90;;;;;;5011429;28;20372;-61
2021/04/02 01:13:34;;;;;;;18.70;9.10;;;5.60;99.90;;;;;;5012455;28;20069;-60
2021/04/02 01:16:09;;;;;;;18.33;8.15;;;5.60;99.90;;;;;;5011538;28;20033;-61
2021/04/02 01:18:46;;;;;;;19.50;8.40;;;5.50;99.90;;;;;;5012497;28;20030;-60
2021/04/02 01:21:18;;;;;;;22.10;8.82;;;5.50;99.90;;;;;;5012663;28;20030;-62
2021/04/02 01:23:53;;;;;;;24.55;12.52;;;5.40;99.90;;;;;;5012751;28;20091;-60
2021/04/02 01:26:31;;;;;;;22.10;10.35;;;5.40;99.90;;;;;;5012993;28;20104;-60
2021/04/02 01:29:08;;;;;;;45.75;19.88;;;5.40;99.90;;;;;;5011171;28;20072;-61
2021/04/02 01:31:37;;;;;;;28.37;13.83;;;5.40;99.90;;;;;;5012666;28;20125;-62
2021/04/02 01:34:05;;;;;;;34.53;20.95;;;5.40;99.90;;;;;;5011373;28;20200;-60
2021/04/02 01:36:31;;;;;;;25.25;10.70;;;5.40;99.90;;;;;;5012479;28;20029;-62
2021/04/02 01:38:58;;;;;;;24.35;8.77;;;5.40;99.90;;;;;;5012405;28;20030;-60
2021/04/02 01:41:26;;;;;;;18.55;7.97;;;5.40;99.90;;;;;;5011107;28;20030;-62
2021/04/02 01:43:59;;;;;;;19.35;8.60;;;5.40;99.90;;;;;;5010901;28;20483;-60
2021/04/02 01:46:26;;;;;;;20.83;8.23;;;5.40;99.90;;;;;;5012294;28;20537;-60
2021/04/02 01:48:55;;;;;;;21.83;8.82;;;5.30;99.90;;;;;;5012286;28;20026;-61
2021/04/02 01:51:22;;;;;;;;;;;5.30;99.90;;;;;;5011506;28;20034;-59
2021/04/02 01:53:50;;;;;;;25.05;10.80;;;5.20;99.90;;;;;;5010479;28;19963;-60
2021/04/02 01:56:18;;;;;;;18.75;8.85;;;5.20;99.90;;;;;;5010949;28;20053;-61
2021/04/02 01:58:45;;;;;;;20.40;8.40;;;5.20;99.90;;;;;;5012098;28;20033;-61
2021/04/02 02:01:13;;;;;;;19.75;8.48;;;5.20;99.90;;;;;;5012265;28;20038;-61
2021/04/02 02:03:40;;;;;;;22.63;8.40;;;5.20;99.90;;;;;;5011860;28;20117;-60
2021/04/02 02:06:08;;;;;;;19.58;8.60;;;5.20;99.90;;;;;;5012062;28;20034;-62
2021/04/02 02:08:36;;;;;;;18.40;8.70;;;5.10;99.90;;;;;;5012041;28;20495;-61
2021/04/02 02:11:14;;;;;;;19.77;8.90;;;5.10;99.90;;;;;;5012535;28;20033;-60
2021/04/02 02:13:41;;;;;;;21.67;8.70;;;5.10;99.90;;;;;;5014254;28;20045;-60
2021/04/02 02:16:11;;;;;;;25.90;9.07;;;5.10;99.90;;;;;;5016057;28;20030;-62
2021/04/02 02:18:38;;;;;;;20.42;8.20;;;5.00;99.90;;;;;;5016096;28;20022;-63
2021/04/02 02:21:12;;;;;;;20.13;8.45;;;5.00;99.90;;;;;;5014409;28;20531;-60
2021/04/02 02:23:47;;;;;;;21.33;9.20;;;5.00;99.90;;;;;;5014341;28;20117;-62
2021/04/02 02:26:13;;;;;;;24.67;8.57;;;5.00;99.90;;;;;;5014513;28;20062;-63
2021/04/02 02:28:40;;;;;;;24.60;9.18;;;4.90;99.90;;;;;;5015623;28;20030;-61
2021/04/02 02:31:06;;;;;;;21.73;8.18;;;4.90;99.90;;;;;;5014300;28;20534;-60
2021/04/02 02:33:32;;;;;;;21.88;7.68;;;5.00;99.90;;;;;;5015457;28;20025;-59
2021/04/02 02:36:00;;;;;;;27.88;10.20;;;5.00;99.90;;;;;;5015037;28;20113;-61
2021/04/02 02:38:26;;;;;;;20.42;7.80;;;5.00;99.90;;;;;;5015935;28;20053;-62
2021/04/02 02:40:52;;;;;;;22.40;9.82;;;5.10;99.90;;;;;;5014385;28;20450;-60
2021/04/02 02:43:18;;;;;;;23.80;8.60;;;5.10;99.90;;;;;;5014222;28;20026;-61
2021/04/02 02:45:44;;;;;;;19.75;8.48;;;5.10;99.90;;;;;;5015062;28;20161;-61
2021/04/02 02:48:10;;;;;;;20.20;8.00;;;5.20;99.90;;;;;;5015585;28;20026;-62
2021/04/02 02:50:39;;;;;;;23.73;8.50;;;5.20;99.90;;;;;;5014489;28;20138;-58
2021/04/02 02:53:07;;;;;;;33.35;10.93;;;5.30;99.90;;;;;;5014088;28;20018;-62
2021/04/02 02:55:37;;;;;;;20.63;8.93;;;5.20;99.90;;;;;;5012517;28;20104;-61
2021/04/02 02:58:05;;;;;;;20.63;8.82;;;5.20;99.90;;;;;;5013864;28;20026;-59
2021/04/02 03:00:41;;;;;;;19.70;8.93;;;5.10;99.90;;;;;;5014104;28;20491;-62
2021/04/02 03:03:15;;;;;;;19.75;8.70;;;5.10;99.90;;;;;;5013723;28;20499;-62
2021/04/02 03:05:43;;;;;;;22.35;8.00;;;5.10;99.90;;;;;;5015133;28;20062;-61
2021/04/02 03:08:11;;;;;;;25.88;9.23;;;5.10;99.90;;;;;;5014998;28;20494;-60
2021/04/02 03:10:37;;;;;;;24.08;8.85;;;5.20;99.90;;;;;;5013802;28;20121;-63
2021/04/02 03:13:04;;;;;;;19.83;7.95;;;5.20;99.90;;;;;;5014534;28;20026;-63
2021/04/02 03:15:33;;;;;;;22.45;9.02;;;5.30;99.90;;;;;;5013506;28;20080;-62
2021/04/02 03:18:11;;;;;;;22.35;8.90;;;5.30;99.90;;;;;;5013651;28;20391;-63
2021/04/02 03:20:39;;;;;;;20.65;9.23;;;5.30;99.90;;;;;;5013972;28;20434;-62
2021/04/02 03:23:07;;;;;;;25.95;8.88;;;5.30;99.90;;;;;;5013651;28;20026;-62
2021/04/02 03:25:36;;;;;;;25.05;9.48;;;5.30;99.90;;;;;;5011624;28;20056;-61
2021/04/02 03:28:03;;;;;;;21.20;8.75;;;5.40;99.90;;;;;;5013053;28;20030;-63
2021/04/02 03:30:29;;;;;;;18.15;8.95;;;5.50;99.90;;;;;;5013133;28;20117;-62
2021/04/02 03:33:20;;;;;;;24.23;8.50;;;5.60;99.90;;;;;;5014364;28;20050;-62
2021/04/02 03:35:47;;;;;;;17.67;8.25;;;5.60;99.90;;;;;;4989520;28;20038;-61
2021/04/02 03:38:16;;;;;;;20.50;8.93;;;5.70;99.90;;;;;;5014356;28;20018;-61
2021/04/02 03:40:46;;;;;;;23.88;9.15;;;5.70;99.90;;;;;;5013094;28;20021;-62
2021/04/02 03:43:13;;;;;;;24.90;9.20;;;5.60;99.90;;;;;;5013084;28;20029;-62
2021/04/02 03:45:40;;;;;;;23.23;9.02;;;5.60;99.90;;;;;;5014210;28;20024;-64
2021/04/02 03:48:09;;;;;;;22.13;9.37;;;5.50;99.90;;;;;;5013174;28;20480;-62
2021/04/02 03:50:40;;;;;;;22.52;9.45;;;5.60;99.90;;;;;;5013069;28;20033;-60
2021/04/02 03:53:26;;;;;;;24.13;9.88;;;5.60;99.90;;;;;;5013993;28;20117;-62
2021/04/02 03:55:53;;;;;;;23.00;10.05;;;5.60;99.90;;;;;;5014010;28;20041;-63
2021/04/02 03:58:20;;;;;;;20.65;10.20;;;5.50;99.90;;;;;;5005813;28;20487;-61
2021/04/02 04:00:57;;;;;;;25.58;10.38;;;5.40;99.90;;;;;;5014074;28;20041;-62
2021/04/02 04:03:24;;;;;;;21.52;8.95;;;5.50;99.90;;;;;;5004639;28;20025;-60
2021/04/02 04:05:53;;;;;;;27.10;11.68;;;5.50;99.90;;;;;;5013756;28;20373;-63
2021/04/02 04:08:20;;;;;;;21.75;9.40;;;5.50;99.90;;;;;;5012738;28;20428;-63
2021/04/02 04:10:49;;;;;;;24.02;11.00;;;5.50;99.90;;;;;;5013620;28;20080;-63
2021/04/02 04:13:16;;;;;;;;;;;5.60;99.90;;;;;;5012685;28;20045;-62
2021/04/02 04:15:44;;;;;;;22.02;9.40;;;5.70;99.90;;;;;;5013545;28;19905;-60
2021/04/02 04:18:12;;;;;;;22.92;9.60;;;5.70;99.90;;;;;;5012475;28;20029;-63
2021/04/02 04:20:39;;;;;;;21.75;8.95;;;5.70;99.90;;;;;;5012262;28;20030;-63
2021/04/02 04:23:07;;;;;;;21.02;8.68;;;5.70;99.90;;;;;;5012483;28;20487;-60
2021/04/02 04:25:34;;;;;;;23.40;9.43;;;5.70;99.90;;;;;;5013475;28;20026;-59
2021/04/02 04:28:01;;;;;;;23.23;9.25;;;5.70;99.90;;;;;;5012365;28;20041;-62
2021/04/02 04:30:27;;;;;;;23.73;9.32;;;5.60;99.90;;;;;;5012143;28;20052;-61
2021/04/02 04:32:55;;;;;;;21.48;9.52;;;5.40;99.90;;;;;;5013305;28;20029;-61
2021/04/02 04:35:22;;;;;;;19.70;9.48;;;5.40;99.90;;;;;;5011820;28;20026;-62
2021/04/02 04:37:49;;;;;;;22.27;9.13;;;5.30;99.90;;;;;;5013353;28;20399;-63
2021/04/02 04:40:18;;;;;;;22.42;9.68;;;5.30;99.90;;;;;;5013211;28;20112;-63
2021/04/02 04:42:45;;;;;;;19.88;9.32;;;5.30;99.90;;;;;;5012131;28;20032;-59
2021/04/02 04:45:13;;;;;;;20.88;9.68;;;5.30;99.90;;;;;;4995364;28;20533;-63
2021/04/02 04:47:38;;;;;;;20.23;9.65;;;5.30;99.90;;;;;;5013403;28;20034;-61
2021/04/02 04:50:06;;;;;;;20.88;9.15;;;5.20;99.90;;;;;;5013340;28;20036;-62
2021/04/02 04:52:32;;;;;;;21.88;9.65;;;5.30;99.90;;;;;;5012357;28;20037;-62
2021/04/02 04:55:01;;;;;;;21.92;9.65;;;5.30;99.90;;;;;;5003295;28;20041;-63
2021/04/02 04:57:32;;;;;;;24.02;10.23;;;5.20;99.90;;;;;;5004869;28;20026;-63
2021/04/02 04:59:59;;;;;;;25.10;10.82;;;5.10;99.90;;;;;;5012821;28;20022;-63
2021/04/02 05:02:26;;;;;;;24.48;9.48;;;5.20;99.90;;;;;;5012857;28;20029;-62
2021/04/02 05:04:53;;;;;;;22.02;9.25;;;5.20;99.90;;;;;;5012543;28;20065;-60
2021/04/02 05:07:20;;;;;;;21.40;10.20;;;5.40;99.90;;;;;;5012486;28;20029;-63
2021/04/02 05:09:48;;;;;;;43.05;11.00;;;5.30;99.90;;;;;;5011359;28;20030;-63
2021/04/02 05:12:15;;;;;;;24.88;10.02;;;5.40;99.90;;;;;;5012356;28;20033;-64
2021/04/02 05:14:43;;;;;;;25.50;9.83;;;5.40;99.90;;;;;;5012488;28;20433;-62
2021/04/02 05:17:10;;;;;;;23.13;9.35;;;5.50;99.90;;;;;;5012686;28;20132;-61
2021/04/02 05:19:36;;;;;;;24.33;9.50;;;5.40;99.90;;;;;;5011670;28;20026;-63
2021/04/02 05:22:02;;;;;;;19.60;8.80;;;5.40;99.90;;;;;;5012585;28;20026;-62
2021/04/02 05:24:28;;;;;;;25.85;10.55;;;5.50;99.90;;;;;;5012487;28;20018;-62
2021/04/02 05:26:54;;;;;;;23.20;10.25;;;5.60;99.90;;;;;;5012604;28;20381;-63
2021/04/02 05:29:20;;;;;;;23.98;9.43;;;5.60;99.90;;;;;;5010636;28;20057;-64
2021/04/02 05:31:46;;;;;;;21.92;10.00;;;5.70;99.90;;;;;;5011400;28;20120;-62
2021/04/02 05:34:13;;;;;;;27.17;11.00;;;5.80;99.90;;;;;;5012147;28;20021;-62
2021/04/02 05:36:38;;;;;;;22.15;9.80;;;5.80;99.90;;;;;;5012665;28;20479;-62
2021/04/02 05:39:04;;;;;;;24.05;9.90;;;5.90;99.90;;;;;;5012243;28;20030;-61
2021/04/02 05:41:37;;;;;;;22.55;8.55;;;5.90;99.90;;;;;;5012419;28;20026;-61
2021/04/02 05:44:09;;;;;;;23.52;9.52;;;6.00;99.90;;;;;;5012408;28;20439;-62
2021/04/02 05:46:36;;;;;;;34.03;11.38;;;6.00;99.90;;;;;;5011159;28;20041;-63
2021/04/02 05:49:04;;;;;;;24.85;10.05;;;6.00;99.90;;;;;;5012618;28;20030;-63
2021/04/02 05:51:30;;;;;;;28.40;9.85;;;6.00;99.90;;;;;;5010932;28;20030;-62
2021/04/02 05:53:58;;;;;;;25.33;8.68;;;6.00;99.90;;;;;;5012005;28;20109;-62
2021/04/02 05:56:25;;;;;;;23.17;9.38;;;5.80;99.90;;;;;;5009987;28;20495;-63
2021/04/02 05:58:51;;;;;;;25.73;9.73;;;5.80;99.90;;;;;;5007847;28;20029;-61
2021/04/02 06:01:17;;;;;;;21.33;8.20;;;5.80;99.90;;;;;;5010707;28;20064;-62
2021/04/02 06:03:43;;;;;;;27.60;11.02;;;5.80;99.90;;;;;;5010434;28;20030;-62
2021/04/02 06:06:13;;;;;;;20.38;8.55;;;5.90;99.90;;;;;;5011918;28;20030;-60
2021/04/02 06:08:46;;;;;;;19.48;7.72;;;5.90;99.90;;;;;;5011533;28;20029;-62
2021/04/02 06:11:13;;;;;;;21.10;8.70;;;6.10;99.90;;;;;;5010525;28;20029;-62
2021/04/02 06:13:38;;;;;;;21.00;8.20;;;6.00;99.90;;;;;;5010560;28;20518;-63
2021/04/02 06:16:04;;;;;;;20.95;9.10;;;6.00;99.90;;;;;;5011880;28;20022;-61
2021/04/02 06:18:35;;;;;;;19.13;7.93;;;6.00;99.90;;;;;;5010661;28;20041;-63
2021/04/02 06:21:01;;;;;;;19.33;8.77;;;6.10;99.90;;;;;;5012018;28;20386;-60
2021/04/02 06:23:30;;;;;;;19.35;8.20;;;6.20;99.90;;;;;;5010275;28;20117;-63
2021/04/02 06:26:04;;;;;;;21.08;8.35;;;6.30;99.90;;;;;;5011697;28;20026;-62
2021/04/02 06:28:35;;;;;;;18.40;8.25;;;6.30;99.90;;;;;;5011884;28;20022;-61
2021/04/02 06:31:18;;;;;;;20.45;8.73;;;6.30;99.90;;;;;;5011386;28;20033;-62
2021/04/02 06:33:51;;;;;;;17.92;8.68;;;6.30;99.90;;;;;;5007241;28;20491;-62
2021/04/02 06:36:23;;;;;;;17.55;8.38;;;6.30;99.90;;;;;;5011798;28;20022;-60
2021/04/02 06:38:54;;;;;;;17.77;7.90;;;6.40;99.90;;;;;;5012054;28;20026;-63
2021/04/02 06:41:22;;;;;;;20.00;8.73;;;6.40;99.90;;;;;;5011642;28;20041;-61
2021/04/02 06:43:50;;;;;;;28.13;13.98;;;6.50;99.90;;;;;;5011411;28;20048;-64
2021/04/02 06:46:23;;;;;;;22.90;8.43;;;6.60;99.90;;;;;;5010343;28;20029;-63
2021/04/02 06:48:53;;;;;;;20.38;8.98;;;6.60;99.90;;;;;;5011780;28;20589;-62
2021/04/02 06:51:21;;;;;;;19.20;8.27;;;6.70;99.90;;;;;;5011638;28;20534;-62
2021/04/02 06:53:50;;;;;;;20.33;8.27;;;6.70;99.90;;;;;;5010235;28;20030;-62
2021/04/02 06:56:17;;;;;;;20.75;8.50;;;6.60;99.90;;;;;;5012158;28;20022;-62
2021/04/02 06:58:44;;;;;;;22.30;9.98;;;6.70;99.90;;;;;;5013924;28;20546;-60
2021/04/02 07:01:14;;;;;;;20.77;8.68;;;6.60;99.90;;;;;;5014968;28;20065;-64
2021/04/02 07:03:42;;;;;;;20.52;8.10;;;6.80;99.90;;;;;;5010245;28;20450;-61
2021/04/02 07:06:12;;;;;;;19.45;8.13;;;6.80;99.90;;;;;;5014897;28;20029;-59
2021/04/02 07:08:39;;;;;;;19.98;8.55;;;6.80;99.90;;;;;;5010730;28;20064;-61
2021/04/02 07:11:05;;;;;;;20.55;8.90;;;6.70;99.90;;;;;;5006792;28;20026;-60
2021/04/02 07:13:38;;;;;;;20.00;8.32;;;6.70;99.90;;;;;;5001364;28;20041;-60
2021/04/02 07:16:04;;;;;;;18.42;8.05;;;6.60;99.90;;;;;;5014840;28;20068;-62
2021/04/02 07:18:30;;;;;;;18.42;8.57;;;6.60;99.90;;;;;;5014683;28;20030;-62
2021/04/02 07:20:56;;;;;;;18.23;8.00;;;6.60;99.90;;;;;;5013328;28;20030;-62
2021/04/02 07:23:22;;;;;;;22.35;9.57;;;6.60;99.90;;;;;;5007116;28;20368;-59
2021/04/02 07:25:48;;;;;;;17.63;7.45;;;6.60;99.90;;;;;;5013879;28;20030;-63
2021/04/02 07:28:14;;;;;;;19.63;8.27;;;6.70;99.90;;;;;;5013237;28;20033;-61
2021/04/02 07:30:43;;;;;;;26.20;9.35;;;6.80;99.90;;;;;;5014689;28;20033;-55
2021/04/02 07:33:10;;;;;;;18.77;8.27;;;6.80;99.90;;;;;;5012722;28;20018;-60
2021/04/02 07:35:41;;;;;;;19.03;8.30;;;6.80;99.90;;;;;;5012693;28;20030;-56
2021/04/02 07:38:16;;;;;;;17.77;8.15;;;6.90;99.90;;;;;;5011365;28;20026;-58
2021/04/02 07:40:48;;;;;;;17.77;8.95;;;7.10;99.90;;;;;;5013739;28;20026;-62
2021/04/02 07:43:13;;;;;;;19.05;7.85;;;7.10;99.90;;;;;;5012715;28;20048;-63
2021/04/02 07:45:39;;;;;;;19.15;9.35;;;7.10;99.90;;;;;;5012853;28;20022;-63
2021/04/02 07:48:25;;;;;;;19.70;7.88;;;7.10;99.90;;;;;;5012600;28;20034;-64
2021/04/02 07:50:52;;;;;;;20.20;8.15;;;7.20;99.90;;;;;;5013904;28;20022;-64
2021/04/02 07:53:39;;;;;;;17.15;8.48;;;7.20;99.90;;;;;;5010975;28;20022;-64
2021/04/02 07:56:19;;;;;;;18.90;9.32;;;7.10;99.90;;;;;;5011211;28;20030;-64
2021/04/02 07:58:53;;;;;;;19.90;8.10;;;7.40;99.90;;;;;;5013929;28;20097;-64
2021/04/02 08:01:21;;;;;;;16.98;8.95;;;7.60;99.90;;;;;;5014018;28;20029;-65
2021/04/02 08:03:49;;;;;;;17.23;7.75;;;7.50;99.90;;;;;;5013721;28;20116;-62
2021/04/02 08:06:37;;;;;;;17.00;7.95;;;7.50;99.90;;;;;;5012505;28;20029;-62
2021/04/02 08:09:06;;;;;;;17.75;8.05;;;7.50;99.90;;;;;;5011807;28;20029;-63
2021/04/02 08:11:35;;;;;;;18.45;8.68;;;7.00;99.90;;;;;;5012269;28;20398;-61
2021/04/02 08:14:09;;;;;;;16.88;8.43;;;7.30;99.90;;;;;;5013258;28;20048;-61
2021/04/02 08:16:48;;;;;;;18.88;8.55;;;7.30;99.90;;;;;;5013531;28;20018;-63
2021/04/02 08:19:20;;;;;;;18.50;8.60;;;7.50;99.90;;;;;;5012192;28;20022;-63
2021/04/02 08:21:50;;;;;;;22.55;9.48;;;7.50;99.90;;;;;;5011629;28;20030;-62
2021/04/02 08:24:18;;;;;;;18.10;8.13;;;7.60;99.90;;;;;;5009878;28;20021;-59
2021/04/02 08:26:44;;;;;;;16.30;7.75;;;7.40;99.90;;;;;;5006774;28;20037;-63
2021/04/02 08:29:12;;;;;;;20.25;8.50;;;7.50;99.90;;;;;;5006829;28;20033;-64
2021/04/02 08:31:53;;;;;;;16.92;9.13;;;7.50;99.90;;;;;;5005388;28;20418;-63
2021/04/02 08:34:22;;;;;;;18.48;8.68;;;7.50;99.90;;;;;;5022208;28;20081;-58
2021/04/02 08:36:49;;;;;;;;;;;7.70;99.90;;;;;;5011038;28;20026;-57
2021/04/02 08:39:17;;;;;;;16.67;8.07;;;7.70;99.90;;;;;;5005903;28;20274;-60
2021/04/02 08:41:43;;;;;;;18.17;8.13;;;7.70;99.90;;;;;;5006438;28;20018;-57
2021/04/02 08:44:09;;;;;;;17.35;8.68;;;7.80;99.90;;;;;;5005402;28;20403;-57
2021/04/02 08:46:46;;;;;;;18.30;8.30;;;7.60;99.90;;;;;;5012726;28;20026;-57
2021/04/02 08:49:15;;;;;;;18.98;8.13;;;7.60;99.90;;;;;;5009340;28;20040;-51
2021/04/02 08:51:47;;;;;;;16.00;8.05;;;7.30;99.90;;;;;;5010935;28;20040;-52
2021/04/02 08:54:17;;;;;;;24.13;8.02;;;7.30;99.90;;;;;;5009643;28;20016;-59
2021/04/02 08:56:42;;;;;;;17.25;8.10;;;7.40;99.90;;;;;;5011256;28;20029;-60
2021/04/02 08:59:10;;;;;;;16.15;7.78;;;7.50;99.90;;;;;;5012426;28;20557;-56
2021/04/02 09:01:42;;;;;;;22.53;8.37;;;7.70;99.90;;;;;;5012807;28;20034;-56
2021/04/02 09:04:09;;;;;;;17.98;7.43;;;7.90;99.90;;;;;;5010424;28;20273;-58
2021/04/02 09:06:35;;;;;;;19.10;9.07;;;8.10;99.90;;;;;;5011776;28;20030;-58
2021/04/02 09:09:03;;;;;;;16.40;7.60;;;7.70;99.90;;;;;;5010958;28;20034;-55
2021/04/02 09:11:29;;;;;;;16.67;8.03;;;7.80;99.90;;;;;;5011101;28;20470;-58
2021/04/02 09:13:54;;;;;;;20.10;8.20;;;7.90;99.90;;;;;;5011914;28;20034;-51
2021/04/02 09:16:21;;;;;;;18.15;7.85;;;8.10;99.90;;;;;;5012608;28;20435;-57
2021/04/02 09:18:53;;;;;;;18.85;8.00;;;8.20;99.90;;;;;;5011088;28;20120;-58
2021/04/02 09:21:20;;;;;;;16.58;8.00;;;8.20;99.90;;;;;;5010939;28;20025;-57
2021/04/02 09:23:48;;;;;;;17.05;7.65;;;8.40;99.90;;;;;;5003246;28;20041;-57
2021/04/02 09:26:14;;;;;;;18.27;7.95;;;8.30;99.90;;;;;;5011311;28;20180;-56
2021/04/02 09:28:39;;;;;;;21.23;8.02;;;8.10;99.90;;;;;;5012382;28;20116;-58
2021/04/02 09:31:29;;;;;;;16.40;7.45;;;8.20;99.90;;;;;;5012394;28;20105;-56
2021/04/02 09:33:58;;;;;;;19.08;7.53;;;8.20;99.90;;;;;;5011878;28;20022;-56
2021/04/02 09:36:26;;;;;;;18.27;8.02;;;;;;;;;;5012042;28;20026;-59
2021/04/02 09:38:52;;;;;;;19.02;7.38;;;;;;;;;;5011738;28;20026;-59
2021/04/02 09:41:23;;;;;;;17.83;7.90;;;8.50;99.90;;;;;;5012189;28;20064;-58
2021/04/02 09:43:53;;;;;;;17.58;7.43;;;8.10;99.90;;;;;;5010718;28;20121;-60
2021/04/02 09:46:29;;;;;;;21.73;7.78;;;8.40;99.90;;;;;;5010873;28;20045;-52
2021/04/02 09:49:11;;;;;;;18.27;7.55;;;8.40;99.90;;;;;;5010746;28;20075;-56
2021/04/02 09:51:48;;;;;;;16.48;7.20;;;8.80;99.90;;;;;;5011930;28;20115;-56
2021/04/02 09:54:17;;;;;;;16.92;7.13;;;9.00;99.90;;;;;;5011730;28;20049;-57
2021/04/02 09:56:45;;;;;;;19.67;8.07;;;9.10;99.90;;;;;;5010151;28;20391;-56
2021/04/02 09:59:11;;;;;;;18.58;8.02;;;8.90;99.90;;;;;;5010841;28;20080;-56
2021/04/02 10:01:39;;;;;;;19.13;7.28;;;9.30;99.90;;;;;;5011913;28;20033;-54
2021/04/02 10:04:06;;;;;;;17.85;7.38;;;9.00;99.90;;;;;;5004185;28;20022;-58
2021/04/02 10:06:32;;;;;;;17.42;6.88;;;8.50;99.90;;;;;;5008574;28;20056;-57
2021/04/02 10:08:57;;;;;;;17.80;7.47;;;8.10;99.90;;;;;;5010312;28;20026;-60
2021/04/02 10:11:24;;;;;;;17.80;7.50;;;8.60;99.90;;;;;;5011645;28;20034;-56
2021/04/02 10:13:51;;;;;;;17.73;7.53;;;8.90;99.90;;;;;;5010279;28;20037;-58
2021/04/02 10:16:20;;;;;;;17.77;7.75;;;9.00;99.90;;;;;;5010852;28;20255;-57
2021/04/02 10:18:48;;;;;;;20.20;7.93;;;9.20;99.90;;;;;;5010851;28;20022;-58
2021/04/02 10:21:14;;;;;;;18.13;8.55;;;9.20;99.90;;;;;;5011818;28;20398;-59
2021/04/02 10:23:40;;;;;;;19.40;7.80;;;;;;;;;;5011842;28;20109;-61
2021/04/02 10:26:06;;;;;;;15.93;8.05;;;;;;;;;;5010721;28;20026;-58
2021/04/02 10:28:33;;;;;;;25.77;8.85;;;;;;;;;;5010541;28;20026;-59
2021/04/02 10:30:59;;;;;;;17.15;8.20;;;;;;;;;;5010405;28;20491;-57
2021/04/02 10:33:25;;;;;;;15.93;7.38;;;;;;;;;;5015479;28;20080;-57
2021/04/02 10:35:51;;;;;;;23.55;9.80;;;;;;;;;;5014530;28;20426;-55
2021/04/02 10:38:17;;;;;;;22.80;9.63;;;;;;;;;;5015772;28;20026;-55
2021/04/02 10:40:43;;;;;;;16.10;8.90;;;9.30;99.90;;;;;;5015570;28;20036;-57
2021/04/02 10:43:09;;;;;;;16.45;9.23;;;10.60;99.90;;;;;;5015244;28;20026;-54
2021/04/02 10:45:35;;;;;;;17.70;8.80;;;11.10;99.90;;;;;;5013955;28;20436;-55
2021/04/02 10:48:02;;;;;;;22.48;9.45;;;10.80;99.90;;;;;;5015597;28;20050;-57
2021/04/02 10:50:29;;;;;;;19.70;9.77;;;10.20;99.90;;;;;;5013880;28;20033;-57
2021/04/02 10:52:55;;;;;;;22.73;9.75;;;10.30;99.90;;;;;;5013752;28;20050;-58
2021/04/02 10:55:24;;;;;;;20.65;9.80;;;10.00;99.90;;;;;;5013772;28;20049;-58
2021/04/02 10:57:50;;;;;;;;;;;10.20;99.90;;;;;;5015343;28;20491;-55
2021/04/02 11:00:19;;;;;;;19.38;9.88;;;10.10;99.90;;;;;;5014926;28;19920;-53
2021/04/02 11:02:44;;;;;;;20.90;9.73;;;10.20;99.90;;;;;;5012170;28;20136;-58
2021/04/02 11:05:11;;;;;;;20.63;9.20;;;9.80;99.90;;;;;;5013702;28;20506;-57
2021/04/02 11:07:38;;;;;;;23.23;9.90;;;9.90;99.90;;;;;;5014576;28;20026;-58
2021/04/02 11:10:08;;;;;;;17.02;8.40;;;9.70;99.90;;;;;;5014709;28;20033;-58
2021/04/02 11:12:35;;;;;;;17.42;8.10;;;9.60;99.90;;;;;;5013885;28;20103;-58
2021/04/02 11:15:01;;;;;;;18.37;7.80;;;9.50;99.90;;;;;;4667197;28;9999993;-56
2021/04/02 11:17:27;;;;;;;21.88;8.27;;;9.50;99.90;;;;;;5011289;28;20024;-56
2021/04/02 11:19:55;;;;;;;15.32;8.00;;;9.60;99.90;;;;;;5011654;28;20133;-54
2021/04/02 11:22:21;;;;;;;19.97;8.40;;;9.40;99.90;;;;;;5011671;28;20026;-55
2021/04/02 11:24:48;;;;;;;20.58;8.68;;;9.10;99.90;;;;;;5011130;28;20273;-56
2021/04/02 11:27:13;;;;;;;18.52;8.82;;;8.90;99.90;;;;;;5010972;28;20238;-58
2021/04/02 11:29:39;;;;;;;21.25;9.75;;;9.10;99.90;;;;;;5009836;28;20466;-55
2021/04/02 11:32:07;;;;;;;18.23;8.40;;;9.20;99.90;;;;;;5011323;28;20744;-53
2021/04/02 11:34:33;;;;;;;17.92;9.00;;;9.20;99.90;;;;;;5011223;28;20032;-57
2021/04/02 11:36:59;;;;;;;20.48;9.70;;;8.90;99.90;;;;;;5011627;28;20033;-56
2021/04/02 11:39:26;;;;;;;22.80;9.27;;;9.10;99.90;;;;;;5010930;28;20376;-58
2021/04/02 11:41:52;;;;;;;18.92;8.98;;;9.40;99.90;;;;;;5010387;28;20028;-58
2021/04/02 11:44:18;;;;;;;20.15;10.73;;;9.10;99.90;;;;;;5009602;28;20030;-55
2021/04/02 11:46:44;;;;;;;18.25;8.57;;;9.30;99.90;;;;;;5009748;28;20057;-52
2021/04/02 11:49:10;;;;;;;17.73;8.43;;;9.20;99.90;;;;;;5010898;28;20072;-58
2021/04/02 11:51:36;;;;;;;17.60;8.10;;;9.70;99.90;;;;;;5011118;28;20026;-55
2021/04/02 11:54:02;;;;;;;19.70;8.68;;;9.60;99.90;;;;;;5012330;28;20033;-56
2021/04/02 11:56:28;;;;;;;16.25;8.43;;;9.70;99.90;;;;;;5011652;28;20018;-54
2021/04/02 11:58:54;;;;;;;19.20;8.88;;;9.40;99.90;;;;;;5014549;28;20133;-57
2021/04/02 12:01:21;;;;;;;17.40;8.27;;;9.10;99.90;;;;;;5012725;28;20128;-57
2021/04/02 12:03:46;;;;;;;17.15;9.00;;;9.10;99.90;;;;;;5013658;28;20046;-55
2021/04/02 12:06:12;;;;;;;17.83;8.48;;;9.30;99.90;;;;;;5013716;28;20065;-57
2021/04/02 12:08:38;;;;;;;17.80;8.40;;;9.60;99.90;;;;;;5012232;28;20026;-59
2021/04/02 12:11:04;;;;;;;18.90;8.35;;;9.40;99.90;;;;;;5011741;28;20558;-54
2021/04/02 12:13:30;;;;;;;20.85;10.23;;;9.70;99.90;;;;;;5026021;23;20066;-62
2021/04/02 12:15:55;;;;;;;18.98;8.80;;;9.90;99.90;;;;;;4990911;28;20030;-63
2021/04/02 12:18:22;;;;;;;16.50;8.80;;;10.20;99.90;;;;;;4992288;28;20111;-65
2021/04/02 12:20:48;;;;;;;17.20;9.32;;;10.30;99.90;;;;;;4993208;28;20510;-63
2021/04/02 12:23:13;;;;;;;24.10;9.35;;;10.10;99.90;;;;;;4643593;28;9999857;-63
2021/04/02 12:25:39;;;;;;;17.23;9.65;;;10.30;99.90;;;;;;4990036;28;20037;-64
2021/04/02 12:28:05;;;;;;;20.85;9.73;;;10.20;99.90;;;;;;4989163;28;20035;-66
2021/04/02 12:30:31;;;;;;;17.73;9.68;;;10.20;99.90;;;;;;4988837;28;20059;-63
2021/04/02 12:32:56;;;;;;;19.27;9.60;;;10.30;99.90;;;;;;4989260;28;20030;-63
2021/04/02 12:35:22;;;;;;;19.13;9.32;;;10.50;99.90;;;;;;4990114;28;20105;-65
2021/04/02 12:37:48;;;;;;;23.00;9.27;;;10.00;99.90;;;;;;4989171;28;20034;-63
2021/04/02 12:40:16;;;;;;;21.98;9.23;;;9.50;99.90;;;;;;4989620;28;20026;-64
2021/04/02 12:42:42;;;;;;;15.95;8.90;;;9.60;99.90;;;;;;4989719;28;20033;-63
2021/04/02 12:45:09;;;;;;;16.10;8.70;;;9.60;99.90;;;;;;4988038;28;20125;-64
2021/04/02 12:47:35;;;;;;;19.88;9.73;;;9.50;99.90;;;;;;4989532;28;20562;-63
2021/04/02 12:50:01;;;;;;;20.00;8.50;;;9.50;99.90;;;;;;4988163;28;20041;-64
2021/04/02 12:52:26;;;;;;;18.30;8.52;;;9.50;99.90;;;;;;4989558;28;20022;-63
2021/04/02 12:54:53;;;;;;;20.20;9.18;;;9.60;99.90;;;;;;4988047;28;20031;-62